createdAt,value
2023-02-01T00:00:11.561Z,91.87
2023-02-01T00:02:14.605Z,92.70
2023-02-01T00:04:17.550Z,92.33
2023-02-01T00:06:21.826Z,91.76
2023-02-01T00:08:24.782Z,91.91
2023-02-01T00:10:27.799Z,92.72
2023-02-01T00:12:30.737Z,92.21
2023-02-01T00:14:39.143Z,91.74
2023-02-01T00:16:42.234Z,91.92
2023-02-01T00:18:45.290Z,92.38
2023-02-01T00:20:48.323Z,93.02
2023-02-01T00:22:52.649Z,92.87
2023-02-01T00:24:55.577Z,92.68
2023-02-01T00:26:58.592Z,92.23
2023-02-01T00:29:02.119Z,92.02
2023-02-01T00:31:06.652Z,92.42
2023-02-01T00:33:09.796Z,92.49
2023-02-01T00:35:12.745Z,92.27
2023-02-01T00:37:15.681Z,92.84
2023-02-01T00:39:19.975Z,92.58
2023-02-01T00:41:23.736Z,92.67
2023-02-01T00:43:26.726Z,93.12
2023-02-01T00:45:29.689Z,92.31
2023-02-01T00:47:32.780Z,93.25
2023-02-01T00:49:35.751Z,93.01
2023-02-01T00:51:38.746Z,93.29
2023-02-01T00:53:42.173Z,94.03
2023-02-01T00:55:48.398Z,94.06
2023-02-01T00:57:51.286Z,94.86
2023-02-01T00:59:54.350Z,94.85
2023-02-01T01:01:57.434Z,94.74
2023-02-01T01:04:01.336Z,95.07
2023-02-01T01:06:06.473Z,95.43
2023-02-01T01:08:09.396Z,95.41
2023-02-01T01:10:13.023Z,95.31
2023-02-01T01:12:17.255Z,95.74
2023-02-01T01:14:21.895Z,95.38
2023-02-01T01:16:26.134Z,95.11
2023-02-01T01:18:29.678Z,95.57
2023-02-01T01:20:32.645Z,95.50
2023-02-01T01:22:35.572Z,95.47
2023-02-01T01:24:38.654Z,95.67
2023-02-01T01:26:41.663Z,95.78
2023-02-01T01:28:46.575Z,95.50
2023-02-01T01:30:49.966Z,95.94
2023-02-01T01:32:53.938Z,95.71
2023-02-01T01:34:56.961Z,94.88
2023-02-01T01:37:00.119Z,95.58
2023-02-01T01:39:03.269Z,95.38
2023-02-01T01:41:06.612Z,95.54
2023-02-01T01:43:15.640Z,95.46
2023-02-01T01:45:26.607Z,96.28
2023-02-01T01:47:33.177Z,96.46
2023-02-01T01:49:36.200Z,96.29
2023-02-01T01:51:42.739Z,96.13
2023-02-01T01:53:47.539Z,96.99
2023-02-01T01:55:51.839Z,96.66
2023-02-01T01:57:58.894Z,96.11
2023-02-01T02:00:06.051Z,96.04
2023-02-01T02:02:18.326Z,96.17
2023-02-01T02:04:22.797Z,95.62
2023-02-01T02:06:34.986Z,95.71
2023-02-01T02:08:40.890Z,95.45
2023-02-01T02:11:03.703Z,95.44
2023-02-01T02:13:06.733Z,95.21
2023-02-01T02:15:11.652Z,94.90
2023-02-01T02:17:33.094Z,95.81
2023-02-01T02:20:11.420Z,95.83
2023-02-01T02:22:37.935Z,95.60
2023-02-01T02:24:55.059Z,95.46
2023-02-01T02:27:27.630Z,95.60
2023-02-01T02:30:06.702Z,95.25
2023-02-01T02:32:30.958Z,95.78
2023-02-01T02:34:36.809Z,96.44
2023-02-01T02:36:45.942Z,95.70
2023-02-01T02:38:52.564Z,96.81
2023-02-01T02:41:07.154Z,97.07
2023-02-01T02:43:30.796Z,97.08
2023-02-01T02:45:58.077Z,96.93
2023-02-01T02:48:08.665Z,96.97
2023-02-01T02:50:35.415Z,97.46
2023-02-01T02:53:01.640Z,96.66
2023-02-01T02:55:06.647Z,96.62
2023-02-01T02:57:29.789Z,96.21
2023-02-01T02:59:53.465Z,95.96
2023-02-01T03:02:14.591Z,95.52
2023-02-01T03:04:18.701Z,95.29
2023-02-01T03:06:26.550Z,95.45
2023-02-01T03:08:30.275Z,95.03
2023-02-01T03:10:39.971Z,94.60
2023-02-01T03:12:58.167Z,94.32
2023-02-01T03:15:06.673Z,94.07
2023-02-01T03:17:14.356Z,93.99
2023-02-01T03:19:21.079Z,93.60
2023-02-01T03:21:28.647Z,93.41
2023-02-01T03:23:34.847Z,93.19
2023-02-01T03:25:38.371Z,93.63
2023-02-01T03:27:44.483Z,93.28
2023-02-01T03:29:51.287Z,93.17
2023-02-01T03:31:54.506Z,92.96
2023-02-01T03:33:57.788Z,93.13
2023-02-01T03:36:10.952Z,93.34
2023-02-01T03:38:21.059Z,93.22
2023-02-01T03:40:24.885Z,93.28
2023-02-01T03:42:32.737Z,93.25
2023-02-01T03:44:38.034Z,93.17
2023-02-01T03:46:43.642Z,92.45
2023-02-01T03:48:50.886Z,92.38
2023-02-01T03:50:55.982Z,92.60
2023-02-01T03:53:01.785Z,92.51
2023-02-01T03:55:07.833Z,92.41
2023-02-01T03:57:14.780Z,92.44
2023-02-01T03:59:17.707Z,92.53
2023-02-01T04:01:20.683Z,92.21
2023-02-01T04:03:24.397Z,92.27
2023-02-01T04:05:27.592Z,92.65
2023-02-01T04:07:38.108Z,93.07
2023-02-01T04:09:41.471Z,93.60
2023-02-01T04:11:45.950Z,93.64
2023-02-01T04:13:48.971Z,93.50
2023-02-01T04:15:52.004Z,93.63
2023-02-01T04:17:55.468Z,93.79
2023-02-01T04:19:58.417Z,93.38
2023-02-01T04:22:01.272Z,93.59
2023-02-01T04:24:04.343Z,93.46
2023-02-01T04:26:07.767Z,93.35
2023-02-01T04:28:12.061Z,93.06
2023-02-01T04:30:15.656Z,92.32
2023-02-01T04:32:18.732Z,92.28
2023-02-01T04:34:23.469Z,92.03
2023-02-01T04:36:26.580Z,92.42
2023-02-01T04:38:30.366Z,91.96
2023-02-01T04:40:33.445Z,91.45
2023-02-01T04:42:36.343Z,91.36
2023-02-01T04:44:42.854Z,90.96
2023-02-01T04:46:46.820Z,91.27
2023-02-01T04:48:49.781Z,90.28
2023-02-01T04:50:52.767Z,90.31
2023-02-01T04:52:55.665Z,89.87
2023-02-01T04:55:01.025Z,89.28
2023-02-01T04:57:03.984Z,89.16
2023-02-01T04:59:07.172Z,90.31
2023-02-01T05:01:11.516Z,89.95
2023-02-01T05:03:14.446Z,89.57
2023-02-01T05:05:17.569Z,88.91
2023-02-01T05:07:20.453Z,89.53
2023-02-01T05:09:28.567Z,89.38
2023-02-01T05:11:49.316Z,88.73
2023-02-01T05:13:54.899Z,89.62
2023-02-01T05:15:57.910Z,89.44
2023-02-01T05:18:02.372Z,89.28
2023-02-01T05:20:06.405Z,88.75
2023-02-01T05:22:09.322Z,89.43
2023-02-01T05:24:14.673Z,88.49
2023-02-01T05:26:17.902Z,89.82
2023-02-01T05:28:20.925Z,88.67
2023-02-01T05:30:24.209Z,88.87
2023-02-01T05:32:28.004Z,89.21
2023-02-01T05:34:32.653Z,88.69
2023-02-01T05:36:35.933Z,89.86
2023-02-01T05:38:38.873Z,90.07
2023-02-01T05:40:41.900Z,90.43
2023-02-01T05:42:44.914Z,89.97
2023-02-01T05:44:47.946Z,89.69
2023-02-01T05:46:53.201Z,90.43
2023-02-01T05:48:56.129Z,89.43
2023-02-01T05:51:00.456Z,89.86
2023-02-01T05:53:03.449Z,89.47
2023-02-01T05:55:07.128Z,90.06
2023-02-01T05:57:10.137Z,89.31
2023-02-01T05:59:13.219Z,89.09
2023-02-01T06:01:16.228Z,89.15
2023-02-01T06:03:19.631Z,88.33
2023-02-01T06:05:22.595Z,88.08
2023-02-01T06:07:29.385Z,88.29
2023-02-01T06:09:32.631Z,89.34
2023-02-01T06:11:35.602Z,88.58
2023-02-01T06:13:39.599Z,88.07
2023-02-01T06:15:45.109Z,88.79
2023-02-01T06:17:48.446Z,87.85
2023-02-01T06:19:51.390Z,88.16
2023-02-01T06:21:54.313Z,87.58
2023-02-01T06:23:59.312Z,88.91
2023-02-01T06:26:04.180Z,88.79
2023-02-01T06:28:09.214Z,87.63
2023-02-01T06:30:14.591Z,88.28
2023-02-01T06:32:18.377Z,88.45
2023-02-01T06:34:23.377Z,88.31
2023-02-01T06:36:26.561Z,88.63
2023-02-01T06:38:29.854Z,88.89
2023-02-01T06:40:34.188Z,89.80
2023-02-01T06:42:37.293Z,88.82
2023-02-01T06:44:40.249Z,89.00
2023-02-01T06:46:43.239Z,89.44
2023-02-01T06:48:47.035Z,88.65
2023-02-01T06:50:50.049Z,88.61
2023-02-01T06:52:53.060Z,90.04
2023-02-01T06:54:56.745Z,89.95
2023-02-01T06:57:01.129Z,90.33
2023-02-01T06:59:05.889Z,90.49
2023-02-01T07:01:10.323Z,90.18
2023-02-01T07:03:13.435Z,89.89
2023-02-01T07:05:16.530Z,89.97
2023-02-01T07:07:20.823Z,90.65
2023-02-01T07:09:23.843Z,90.56
2023-02-01T07:11:28.292Z,90.73
2023-02-01T07:13:32.825Z,90.34
2023-02-01T07:15:35.847Z,90.21
2023-02-01T07:17:38.829Z,91.77
2023-02-01T07:19:41.777Z,91.13
2023-02-01T07:21:44.730Z,91.21
2023-02-01T07:23:47.843Z,90.63
2023-02-01T07:25:50.988Z,90.43
2023-02-01T07:27:53.994Z,90.07
2023-02-01T07:30:02.907Z,90.58
2023-02-01T07:32:06.256Z,89.98
2023-02-01T07:34:09.185Z,91.08
2023-02-01T07:36:14.482Z,91.12
2023-02-01T07:38:18.231Z,90.65
2023-02-01T07:40:25.944Z,91.43
2023-02-01T07:42:28.915Z,91.62
2023-02-01T07:44:31.991Z,91.59
2023-02-01T07:46:37.179Z,92.71
2023-02-01T07:48:40.660Z,92.63
2023-02-01T07:50:43.772Z,93.34
2023-02-01T07:52:46.782Z,92.79
2023-02-01T07:54:49.879Z,93.28
2023-02-01T07:56:52.824Z,92.00
2023-02-01T07:58:56.989Z,91.75
2023-02-01T08:01:17.627Z,91.94
2023-02-01T08:03:21.994Z,92.95
2023-02-01T08:05:24.941Z,92.18
2023-02-01T08:07:27.975Z,91.89
2023-02-01T08:09:32.140Z,92.98
2023-02-01T08:11:35.171Z,92.58
2023-02-01T08:13:38.291Z,92.57
2023-02-01T08:15:41.454Z,92.62
2023-02-01T08:17:48.981Z,92.25
2023-02-01T08:19:53.314Z,93.24
2023-02-01T08:21:56.265Z,93.14
2023-02-01T08:23:59.358Z,93.21
2023-02-01T08:26:13.535Z,94.28
2023-02-01T08:28:16.886Z,94.70
2023-02-01T08:30:19.952Z,94.06
2023-02-01T08:32:22.977Z,94.85
2023-02-01T08:34:26.282Z,94.42
2023-02-01T08:36:32.047Z,95.18
2023-02-01T08:38:37.128Z,94.38
2023-02-01T08:40:42.385Z,93.46
2023-02-01T08:42:54.946Z,93.39
2023-02-01T08:44:58.299Z,93.80
2023-02-01T08:47:01.551Z,92.61
2023-02-01T08:49:04.825Z,92.90
2023-02-01T08:51:10.067Z,92.03
2023-02-01T08:53:15.041Z,91.64
2023-02-01T08:55:18.404Z,91.12
2023-02-01T08:57:21.439Z,91.36
2023-02-01T08:59:26.681Z,90.46
2023-02-01T09:01:30.636Z,89.89
2023-02-01T09:03:34.159Z,90.80
2023-02-01T09:05:48.667Z,89.06
2023-02-01T09:07:52.608Z,89.49
2023-02-01T09:09:57.393Z,89.72
2023-02-01T09:12:00.422Z,89.12
2023-02-01T09:14:03.371Z,88.91
2023-02-01T09:16:06.963Z,89.18
2023-02-01T09:18:10.009Z,89.62
2023-02-01T09:20:13.861Z,89.42
2023-02-01T09:22:17.097Z,88.56
2023-02-01T09:24:20.095Z,87.79
2023-02-01T09:26:31.497Z,89.71
2023-02-01T09:28:35.396Z,88.92
2023-02-01T09:30:39.054Z,88.58
2023-02-01T09:32:42.117Z,88.73
2023-02-01T09:34:45.087Z,87.03
2023-02-01T09:36:48.060Z,87.33
2023-02-01T09:38:53.189Z,87.88
2023-02-01T09:40:57.344Z,87.81
2023-02-01T09:43:13.835Z,87.51
2023-02-01T09:45:22.503Z,85.49
2023-02-01T09:47:27.088Z,86.46
2023-02-01T09:49:32.725Z,85.18
2023-02-01T09:51:39.750Z,85.16
2023-02-01T09:53:44.579Z,85.94
2023-02-01T09:55:50.380Z,86.71
2023-02-01T09:57:57.042Z,87.99
2023-02-01T10:00:05.347Z,87.72
2023-02-01T10:02:18.702Z,87.99
2023-02-01T10:04:23.028Z,88.54
2023-02-01T10:06:38.498Z,88.37
2023-02-01T10:08:56.459Z,87.15
2023-02-01T10:11:04.714Z,85.91
2023-02-01T10:13:20.150Z,86.29
2023-02-01T10:15:47.346Z,85.89
2023-02-01T10:17:59.456Z,85.67
2023-02-01T10:20:10.001Z,85.84
2023-02-01T10:22:14.865Z,86.03
2023-02-01T10:24:28.024Z,86.35
2023-02-01T10:26:35.699Z,85.88
2023-02-01T10:28:40.227Z,84.88
2023-02-01T10:30:47.323Z,84.07
2023-02-01T10:32:53.784Z,85.09
2023-02-01T10:35:00.023Z,83.56
2023-02-01T10:37:09.655Z,82.52
2023-02-01T10:39:14.591Z,82.71
2023-02-01T10:41:20.131Z,84.25
2023-02-01T10:43:23.678Z,83.16
2023-02-01T10:45:28.792Z,83.57
2023-02-01T10:47:33.269Z,82.67
2023-02-01T10:49:42.625Z,82.92
2023-02-01T10:51:48.317Z,82.18
2023-02-01T10:53:54.265Z,83.19
2023-02-01T10:55:57.628Z,82.68
2023-02-01T10:58:02.460Z,83.13
2023-02-01T11:00:09.275Z,83.62
2023-02-01T11:02:21.563Z,83.25
2023-02-01T11:04:27.370Z,82.94
2023-02-01T11:06:32.895Z,82.12
2023-02-01T11:08:35.921Z,82.97
2023-02-01T11:10:41.514Z,83.13
2023-02-01T11:12:55.509Z,82.59
2023-02-01T11:15:16.169Z,81.64
2023-02-01T11:17:27.175Z,81.80
2023-02-01T11:19:32.016Z,81.61
2023-02-01T11:21:35.497Z,82.16
2023-02-01T11:23:43.228Z,81.10
2023-02-01T11:25:54.423Z,80.56
2023-02-01T11:27:58.101Z,81.03
2023-02-01T11:30:03.171Z,80.40
2023-02-01T11:32:07.172Z,80.63
2023-02-01T11:34:14.674Z,80.72
2023-02-01T11:36:20.592Z,80.98
2023-02-01T11:38:27.335Z,79.94
2023-02-01T11:40:32.293Z,80.20
2023-02-01T11:42:35.300Z,80.28
2023-02-01T11:44:39.909Z,79.44
2023-02-01T11:46:42.994Z,80.90
2023-02-01T11:48:46.178Z,79.31
2023-02-01T11:50:55.017Z,77.92
2023-02-01T11:53:16.523Z,78.08
2023-02-01T11:55:38.863Z,78.61
2023-02-01T11:57:53.931Z,79.65
2023-02-01T12:00:07.023Z,79.68
2023-02-01T12:02:28.943Z,80.28
2023-02-01T12:05:06.725Z,78.63
2023-02-01T12:07:16.030Z,77.50
2023-02-01T12:09:32.091Z,79.26
2023-02-01T12:11:45.955Z,79.66
2023-02-01T12:14:03.525Z,78.59
2023-02-01T12:16:17.969Z,78.05
2023-02-01T12:18:49.931Z,77.43
2023-02-01T12:21:03.852Z,77.93
2023-02-01T12:23:19.953Z,77.25
2023-02-01T12:25:33.290Z,77.88
2023-02-01T12:27:54.097Z,75.98
2023-02-01T12:30:12.933Z,77.22
2023-02-01T12:32:26.809Z,77.92
2023-02-01T12:35:04.158Z,76.13
2023-02-01T12:37:16.965Z,76.50
2023-02-01T12:39:25.183Z,77.27
2023-02-01T12:41:47.744Z,76.33
2023-02-01T12:43:53.903Z,77.32
2023-02-01T12:46:00.529Z,76.62
2023-02-01T12:48:24.151Z,76.96
2023-02-01T12:50:29.857Z,76.50
2023-02-01T12:52:38.284Z,78.08
2023-02-01T12:54:46.387Z,76.91
2023-02-01T12:56:56.172Z,76.62
2023-02-01T12:59:01.987Z,77.63
2023-02-01T13:01:10.127Z,77.39
2023-02-01T13:03:19.640Z,77.01
2023-02-01T13:05:25.067Z,77.77
2023-02-01T13:07:31.511Z,76.73
2023-02-01T13:09:40.367Z,77.91
2023-02-01T13:11:46.109Z,77.03
2023-02-01T13:13:57.213Z,77.56
2023-02-01T13:16:08.274Z,77.70
2023-02-01T13:18:16.510Z,76.24
2023-02-01T13:20:25.140Z,77.68
2023-02-01T13:22:32.646Z,76.12
2023-02-01T13:24:39.265Z,76.64
2023-02-01T13:26:42.413Z,76.34
2023-02-01T13:28:49.354Z,77.35
2023-02-01T13:31:19.589Z,77.47
2023-02-01T13:33:54.062Z,76.44
2023-02-01T13:36:17.019Z,78.53
2023-02-01T13:39:05.223Z,77.98
2023-02-01T13:41:20.136Z,78.09
2023-02-01T13:43:27.176Z,78.25
2023-02-01T13:45:32.691Z,77.96
2023-02-01T13:47:41.727Z,79.72
2023-02-01T13:49:44.819Z,79.34
2023-02-01T13:51:50.766Z,79.84
2023-02-01T13:53:54.824Z,79.97
2023-02-01T13:56:00.654Z,79.13
2023-02-01T13:58:18.235Z,79.39
2023-02-01T14:00:31.456Z,80.29
2023-02-01T14:03:23.080Z,80.06
2023-02-01T14:05:59.558Z,79.33
2023-02-01T14:08:13.676Z,79.41
2023-02-01T14:10:51.646Z,79.53
2023-02-01T14:13:06.183Z,80.49
2023-02-01T14:15:23.849Z,79.92
2023-02-01T14:17:36.152Z,80.78
2023-02-01T14:19:39.696Z,79.63
2023-02-01T14:21:52.694Z,79.25
2023-02-01T14:24:01.316Z,78.40
2023-02-01T14:26:14.049Z,79.04
2023-02-01T14:28:27.085Z,79.16
2023-02-01T14:30:30.154Z,77.84
2023-02-01T14:32:35.839Z,79.68
2023-02-01T14:34:45.843Z,79.33
2023-02-01T14:36:53.337Z,80.00
2023-02-01T14:38:56.423Z,78.38
2023-02-01T14:41:13.504Z,79.58
2023-02-01T14:43:23.677Z,79.81
2023-02-01T14:45:51.968Z,79.04
2023-02-01T14:47:56.143Z,79.63
2023-02-01T14:50:05.041Z,78.57
2023-02-01T14:52:15.447Z,80.23
2023-02-01T14:54:20.807Z,79.89
2023-02-01T14:56:24.136Z,81.10
2023-02-01T14:58:37.370Z,80.51
2023-02-01T15:00:49.718Z,80.34
2023-02-01T15:02:53.861Z,79.86
2023-02-01T15:04:58.165Z,81.27
2023-02-01T15:07:07.999Z,81.20
2023-02-01T15:09:16.471Z,80.52
2023-02-01T15:11:19.943Z,80.05
2023-02-01T15:13:25.168Z,79.50
2023-02-01T15:15:28.361Z,80.25
2023-02-01T15:17:34.693Z,80.82
2023-02-01T15:19:38.143Z,79.50
2023-02-01T15:21:49.294Z,79.57
2023-02-01T15:23:52.283Z,80.82
2023-02-01T15:25:57.105Z,79.38
2023-02-01T15:28:00.399Z,80.12
2023-02-01T15:30:10.332Z,79.39
2023-02-01T15:32:32.348Z,80.41
2023-02-01T15:34:49.375Z,79.91
2023-02-01T15:37:07.643Z,79.24
2023-02-01T15:39:26.774Z,79.12
2023-02-01T15:41:32.588Z,80.20
2023-02-01T15:43:39.085Z,79.28
2023-02-01T15:45:42.297Z,79.76
2023-02-01T15:47:49.428Z,78.90
2023-02-01T15:49:54.844Z,79.22
2023-02-01T15:51:59.386Z,78.93
2023-02-01T15:54:04.872Z,77.61
2023-02-01T15:56:08.475Z,78.21
2023-02-01T15:58:25.829Z,78.81
2023-02-01T16:00:30.958Z,78.95
2023-02-01T16:02:38.463Z,77.79
2023-02-01T16:04:51.820Z,76.92
2023-02-01T16:06:55.977Z,78.17
2023-02-01T16:09:04.703Z,77.28
2023-02-01T16:11:24.148Z,78.01
2023-02-01T16:13:28.599Z,77.92
2023-02-01T16:15:33.083Z,78.42
2023-02-01T16:17:36.056Z,77.64
2023-02-01T16:19:39.135Z,77.77
2023-02-01T16:21:42.026Z,77.27
2023-02-01T16:23:50.693Z,77.19
2023-02-01T16:25:54.192Z,78.22
2023-02-01T16:27:57.545Z,78.78
2023-02-01T16:30:02.542Z,78.42
2023-02-01T16:32:06.194Z,78.98
2023-02-01T16:34:15.953Z,77.59
2023-02-01T16:36:19.571Z,77.93
2023-02-01T16:38:24.666Z,78.62
2023-02-01T16:40:27.794Z,78.14
2023-02-01T16:42:31.919Z,78.47
2023-02-01T16:44:35.213Z,77.51
2023-02-01T16:46:42.888Z,77.48
2023-02-01T16:48:49.538Z,77.38
2023-02-01T16:50:55.420Z,77.86
2023-02-01T16:52:58.545Z,77.00
2023-02-01T16:55:02.124Z,77.15
2023-02-01T16:57:05.423Z,77.38
2023-02-01T16:59:11.144Z,78.22
2023-02-01T17:01:16.046Z,77.99
2023-02-01T17:03:22.105Z,78.05
2023-02-01T17:05:25.777Z,76.75
2023-02-01T17:07:29.159Z,77.61
2023-02-01T17:09:32.192Z,77.09
2023-02-01T17:11:35.843Z,76.74
2023-02-01T17:13:38.872Z,76.61
2023-02-01T17:15:42.105Z,76.95
2023-02-01T17:17:45.762Z,78.17
2023-02-01T17:19:54.111Z,76.46
2023-02-01T17:21:59.621Z,77.42
2023-02-01T17:24:03.018Z,77.83
2023-02-01T17:26:06.262Z,77.57
2023-02-01T17:28:09.727Z,76.60
2023-02-01T17:30:13.708Z,77.58
2023-02-01T17:32:20.010Z,78.07
2023-02-01T17:34:23.129Z,78.04
2023-02-01T17:36:28.018Z,77.03
2023-02-01T17:38:31.398Z,77.94
2023-02-01T17:40:35.112Z,76.78
2023-02-01T17:42:40.827Z,77.68
2023-02-01T17:44:43.824Z,77.39
2023-02-01T17:46:46.958Z,76.17
2023-02-01T17:48:49.941Z,75.64
2023-02-01T17:50:58.538Z,76.83
2023-02-01T17:53:05.967Z,77.04
2023-02-01T17:55:17.899Z,76.85
2023-02-01T17:57:21.089Z,77.54
2023-02-01T17:59:24.119Z,76.19
2023-02-01T18:01:27.703Z,76.74
2023-02-01T18:03:33.054Z,76.08
2023-02-01T18:05:41.218Z,77.02
2023-02-01T18:07:44.293Z,75.98
2023-02-01T18:09:48.732Z,77.25
2023-02-01T18:11:55.598Z,76.89
2023-02-01T18:13:58.660Z,76.90
2023-02-01T18:16:02.155Z,77.47
2023-02-01T18:18:05.388Z,75.84
2023-02-01T18:20:10.185Z,77.51
2023-02-01T18:22:16.867Z,77.79
2023-02-01T18:24:20.000Z,76.80
2023-02-01T18:26:24.901Z,77.43
2023-02-01T18:28:28.415Z,78.21
2023-02-01T18:30:33.211Z,77.13
2023-02-01T18:32:36.845Z,78.39
2023-02-01T18:34:41.068Z,77.62
2023-02-01T18:36:44.199Z,78.32
2023-02-01T18:38:47.746Z,77.89
2023-02-01T18:40:52.612Z,76.78
2023-02-01T18:42:58.268Z,78.47
2023-02-01T18:45:01.451Z,77.08
2023-02-01T18:47:04.667Z,77.10
2023-02-01T18:49:08.665Z,78.14
2023-02-01T18:51:13.284Z,78.71
2023-02-01T18:53:19.983Z,76.52
2023-02-01T18:55:23.810Z,77.50
2023-02-01T18:57:27.313Z,78.46
2023-02-01T18:59:32.688Z,76.77
2023-02-01T19:01:36.149Z,77.64
2023-02-01T19:03:45.029Z,77.30
2023-02-01T19:05:56.648Z,77.00
2023-02-01T19:07:59.798Z,77.42
2023-02-01T19:10:03.059Z,77.53
2023-02-01T19:12:06.525Z,76.77
2023-02-01T19:14:09.642Z,77.33
2023-02-01T19:16:14.791Z,76.86
2023-02-01T19:18:20.215Z,76.21
2023-02-01T19:20:25.267Z,76.05
2023-02-01T19:22:28.554Z,77.64
2023-02-01T19:24:31.710Z,76.57
2023-02-01T19:26:34.986Z,77.91
2023-02-01T19:28:38.292Z,76.77
2023-02-01T19:30:41.590Z,76.44
2023-02-01T19:32:46.726Z,77.27
2023-02-01T19:34:50.145Z,77.21
2023-02-01T19:36:55.158Z,77.55
2023-02-01T19:38:58.296Z,77.15
2023-02-01T19:41:01.648Z,77.58
2023-02-01T19:43:04.986Z,75.86
2023-02-01T19:45:09.645Z,77.12
2023-02-01T19:47:12.855Z,76.26
2023-02-01T19:49:17.531Z,76.63
2023-02-01T19:51:21.120Z,76.37
2023-02-01T19:53:27.666Z,76.16
2023-02-01T19:55:31.159Z,76.69
2023-02-01T19:57:36.101Z,77.54
2023-02-01T19:59:39.322Z,76.53
2023-02-01T20:01:44.288Z,76.11
2023-02-01T20:03:47.869Z,77.49
2023-02-01T20:05:53.633Z,77.25
2023-02-01T20:07:56.716Z,76.52
2023-02-01T20:10:00.129Z,77.21
2023-02-01T20:12:03.511Z,77.64
2023-02-01T20:14:07.456Z,77.39
2023-02-01T20:16:11.476Z,76.36
2023-02-01T20:18:14.740Z,77.98
2023-02-01T20:20:18.312Z,76.62
2023-02-01T20:22:23.115Z,77.06
2023-02-01T20:24:26.381Z,76.49
2023-02-01T20:26:30.802Z,76.65
2023-02-01T20:28:34.730Z,76.97
2023-02-01T20:30:37.870Z,76.96
2023-02-01T20:32:41.072Z,76.98
2023-02-01T20:34:44.131Z,78.63
2023-02-01T20:36:47.205Z,77.88
2023-02-01T20:38:51.788Z,77.54
2023-02-01T20:40:54.899Z,77.21
2023-02-01T20:42:58.800Z,78.86
2023-02-01T20:45:04.000Z,78.40
2023-02-01T20:47:07.109Z,77.92
2023-02-01T20:49:12.017Z,77.39
2023-02-01T20:51:16.631Z,78.55
2023-02-01T20:53:26.621Z,78.29
2023-02-01T20:55:32.437Z,79.31
2023-02-01T20:57:35.491Z,78.38
2023-02-01T20:59:39.363Z,79.46
2023-02-01T21:01:53.114Z,77.99
2023-02-01T21:03:56.677Z,77.97
2023-02-01T21:06:00.988Z,78.82
2023-02-01T21:08:04.225Z,77.85
2023-02-01T21:10:08.560Z,78.82
2023-02-01T21:12:13.241Z,79.25
2023-02-01T21:14:16.292Z,79.40
2023-02-01T21:16:21.038Z,79.24
2023-02-01T21:18:24.304Z,78.67
2023-02-01T21:20:27.977Z,78.86
2023-02-01T21:22:31.123Z,79.25
2023-02-01T21:24:34.120Z,79.64
2023-02-01T21:26:41.840Z,80.04
2023-02-01T21:28:46.740Z,79.87
2023-02-01T21:30:49.758Z,80.07
2023-02-01T21:32:52.879Z,78.78
2023-02-01T21:34:56.122Z,78.48
2023-02-01T21:36:59.287Z,79.24
2023-02-01T21:39:03.780Z,79.19
2023-02-01T21:41:24.193Z,79.41
2023-02-01T21:43:27.270Z,78.59
2023-02-01T21:45:32.047Z,79.13
2023-02-01T21:47:35.166Z,78.04
2023-02-01T21:49:40.369Z,78.64
2023-02-01T21:51:44.564Z,78.81
2023-02-01T21:53:47.564Z,79.66
2023-02-01T21:55:51.019Z,78.27
2023-02-01T21:57:54.047Z,78.21
2023-02-01T21:59:58.742Z,79.98
2023-02-01T22:02:04.847Z,79.73
2023-02-01T22:04:10.325Z,79.83
2023-02-01T22:06:24.991Z,79.70
2023-02-01T22:08:28.081Z,79.83
2023-02-01T22:10:31.140Z,80.25
2023-02-01T22:12:34.245Z,80.51
2023-02-01T22:14:37.387Z,80.53
2023-02-01T22:16:40.948Z,79.42
2023-02-01T22:18:45.685Z,79.44
2023-02-01T22:20:48.697Z,80.51
2023-02-01T22:22:52.401Z,80.78
2023-02-01T22:24:55.542Z,80.62
2023-02-01T22:27:13.834Z,80.72
2023-02-01T22:29:19.160Z,80.31
2023-02-01T22:31:22.697Z,80.47
2023-02-01T22:33:25.876Z,80.37
2023-02-01T22:35:30.375Z,80.98
2023-02-01T22:37:33.391Z,80.08
2023-02-01T22:39:36.432Z,79.36
2023-02-01T22:41:39.514Z,79.17
2023-02-01T22:43:42.714Z,79.71
2023-02-01T22:45:45.829Z,80.99
2023-02-01T22:47:49.963Z,80.07
2023-02-01T22:49:53.237Z,79.65
2023-02-01T22:51:59.219Z,81.39
2023-02-01T22:54:02.685Z,80.32
2023-02-01T22:56:07.636Z,80.43
2023-02-01T22:58:10.666Z,80.86
2023-02-01T23:00:14.846Z,81.46
2023-02-01T23:02:17.864Z,80.77
2023-02-01T23:04:21.439Z,80.95
2023-02-01T23:06:24.640Z,81.78
2023-02-01T23:08:29.186Z,81.83
2023-02-01T23:10:32.181Z,82.48
2023-02-01T23:12:35.238Z,82.55
2023-02-01T23:14:58.395Z,83.06
2023-02-01T23:17:01.751Z,83.15
2023-02-01T23:19:05.223Z,83.72
2023-02-01T23:21:10.523Z,82.91
2023-02-01T23:23:16.302Z,83.67
2023-02-01T23:25:20.792Z,82.71
2023-02-01T23:27:23.939Z,84.74
2023-02-01T23:29:28.291Z,84.78
2023-02-01T23:31:33.435Z,85.13
2023-02-01T23:33:37.225Z,85.30
2023-02-01T23:35:40.464Z,84.78
2023-02-01T23:37:43.782Z,85.93
2023-02-01T23:39:46.889Z,85.03
2023-02-01T23:41:51.337Z,85.17
2023-02-01T23:43:59.649Z,83.94
2023-02-01T23:46:02.866Z,85.21
2023-02-01T23:48:06.545Z,83.77
2023-02-01T23:50:10.416Z,85.24
2023-02-01T23:52:13.579Z,84.45
2023-02-01T23:54:16.663Z,85.26
2023-02-01T23:56:22.784Z,84.74
2023-02-01T23:58:27.287Z,86.12
